Close Search

Base
°C
Summit
°C

WEATHER AT A GLANCE

Image Slideshow

RMR Village

Revelstoke Mountain Resort -  RMR Village Webcam

Top of The Stoke

Revelstoke Mountain Resort -  Top of The Stoke Webcam

Top of Stellar

Revelstoke Mountain Resort -  Top of Stellar Webcam

Mackenzie Outpost

Revelstoke Mountain Resort -  Mackenzie Outpost Webcam

Ripper

Revelstoke Mountain Resort -  Ripper Webcam
Base
°C
Summit
°C
Wind (Summit)
km/h

Today's Forecast

Subpeak Weather

Time Avg. Air Temp Dew Point Avg. Rel Humidity Avg. 2 Min Wind Speed Max Gust Velocity MGV Time MGV Direction Avg. Spot Wind Velocity
2026-05-04 10:40:003° C-3° C61%32 km/h37 km/h10:36:00N31 km/h
09:40:003° C-3° C63%35 km/h41 km/h09:37:00NE37 km/h
08:40:003° C-4° C60%29 km/h41 km/h08:38:00NE34 km/h
07:40:003° C-3° C61%35 km/h45 km/h07:38:00NE39 km/h
06:40:003° C-4° C60%29 km/h36 km/h06:38:00NE27 km/h
05:40:003° C-4° C59%22 km/h25 km/h05:37:00NE22 km/h
04:40:004° C-4° C54%23 km/h25 km/h04:40:00NE23 km/h
03:40:004° C-4° C58%6 km/h12 km/h03:38:00N6 km/h
02:40:004° C-4° C56%10 km/h25 km/h02:36:00W14 km/h
01:40:004° C-4° C58%4 km/h26 km/h01:36:00W7 km/h
00:40:004° C-4° C53%13 km/h33 km/h00:40:00NW14 km/h
23:40:005° C-4° C53%7 km/h19 km/h23:39:00W6 km/h
22:40:006° C-3° C53%10 km/h15 km/h22:40:00NE7 km/h
21:40:006° C-3° C53%8 km/h14 km/h21:38:00NE9 km/h
20:40:007° C-3° C50%22 km/h24 km/h20:37:00NW21 km/h
19:40:007° C-3° C51%18 km/h22 km/h19:40:00NW9 km/h
18:40:007° C-3° C50%8 km/h15 km/h18:39:00NE8 km/h
17:40:007° C-3° C48%4 km/h16 km/h17:36:00W4 km/h
16:40:007° C-3° C50%5 km/h9 km/h16:38:00NW5 km/h
15:40:007° C-3° C49%9 km/h20 km/h15:39:00N9 km/h
14:40:006° C-3° C51%6 km/h11 km/h14:39:00N6 km/h
13:40:006° C-3° C52%15 km/h19 km/h13:37:00NW16 km/h
12:40:005° C-4° C52%15 km/h22 km/h12:36:00NW16 km/h
11:40:005° C-5° C48%10 km/h13 km/h11:40:00NW9 km/h

Time Avg. Air Temp Dew Point Avg. Rel Humidity Avg. 2 Min Wind Speed Max Gust Velocity MGV Time MGV Direction Avg. Spot Wind Velocity
2026-05-04 10:40:003° C-3° C61%32 km/h37 km/h10:36:00N31 km/h
10:35:003° C-3° C61%31 km/h36 km/h10:33:00NE33 km/h
10:30:003° C-3° C62%31 km/h39 km/h10:29:00NE31 km/h
10:25:003° C-3° C63%30 km/h36 km/h10:22:00NE30 km/h
10:20:003° C-3° C63%29 km/h34 km/h10:19:00NE26 km/h
10:15:003° C-3° C63%31 km/h36 km/h10:12:00NE28 km/h
10:10:003° C-3° C62%31 km/h36 km/h10:06:00NE28 km/h
10:05:003° C-3° C63%34 km/h46 km/h10:04:00NE34 km/h
10:00:003° C-3° C61%36 km/h40 km/h09:59:00NE36 km/h
09:55:003° C-3° C62%36 km/h41 km/h09:55:00NE37 km/h
09:50:003° C-3° C63%33 km/h39 km/h09:47:00NE30 km/h
09:45:003° C-3° C62%34 km/h42 km/h09:42:00NE34 km/h
09:40:003° C-3° C63%35 km/h41 km/h09:37:00NE37 km/h

We value your privacy
We use cookies to enhance your browsing experience, serve personalized ads or content, and analyze our traffic. By clicking "Allow Cookies", you consent to our use of cookies. For additional details view our Privacy Policy.
Cookie preferences

You can control how your data is used on our website. Learn more below about the cookies we use by reviewing our Privacy Policy.

Your cookie preferences have been saved.